Lark, North Dakota
Current Conditions -  °F | °C
As of 4:15 AM on Wednesday 26 Nov 2014 (Local Time) from KY19 Reporting Station
Light Snow Light Snow  
Wind Chill: -5°   Ceiling: 2500
Heat Index:   Visibility: 10mi
Dew Point:   Wind: 9mph
Humidity: 92%   Direction: 360°N
Pressure: 30.25"   Gusts: NA
Location:  46.4673°N, 101.102°W
Report Text: KY19 261015Z AUTO 36008KT 10SM -SN FEW005 OVC025 M13/M14 A3025 RMK AO2
Loading
Personal Weather Stations






























Interactive Weather Map New forecast layout! Learn more

10-Day Weather Forecast

Advertisements
Track Severe Weather on mobile